createdAt,value
2019-05-13T00:00:03.749Z,1038.99
2019-05-13T00:05:03.868Z,1038.96
2019-05-13T00:10:04.046Z,1038.98
2019-05-13T00:15:03.724Z,1038.94
2019-05-13T00:20:04.036Z,1038.99
2019-05-13T00:25:04.068Z,1039.02
2019-05-13T00:30:04.316Z,1039.03
2019-05-13T00:35:03.927Z,1039.05
2019-05-13T00:40:03.918Z,1039.08
2019-05-13T00:45:03.991Z,1039.18
2019-05-13T00:50:03.681Z,1039.19
2019-05-13T00:55:04.212Z,1039.13
2019-05-13T01:00:03.495Z,1039.1
2019-05-13T01:05:04.297Z,1039.17
2019-05-13T01:10:04.243Z,1039.18
2019-05-13T01:15:04.116Z,1039.22
2019-05-13T01:20:04.174Z,1039.24
2019-05-13T01:25:03.902Z,1039.19
2019-05-13T01:30:04.116Z,1039.21
2019-05-13T01:35:04.560Z,1039.19
2019-05-13T01:40:05.087Z,1039.21
2019-05-13T01:45:04.577Z,1039.23
2019-05-13T01:50:04.053Z,1039.3
2019-05-13T01:55:04.098Z,1039.32
2019-05-13T02:00:04.680Z,1039.22
2019-05-13T02:05:03.967Z,1039.3
2019-05-13T02:10:04.291Z,1039.25
2019-05-13T02:15:04.370Z,1039.2
2019-05-13T02:20:03.888Z,1039.29
2019-05-13T02:25:04.495Z,1039.31
2019-05-13T02:30:05.472Z,1039.25
2019-05-13T02:35:03.410Z,1039.28
2019-05-13T02:40:03.945Z,1039.29
2019-05-13T02:45:03.823Z,1039.28
2019-05-13T02:50:05.045Z,1039.3
2019-05-13T02:55:04.053Z,1039.36
2019-05-13T03:00:04.044Z,1039.3
2019-05-13T03:05:03.368Z,1039.31
2019-05-13T03:10:04.129Z,1039.4
2019-05-13T03:15:03.209Z,1039.49
2019-05-13T03:20:04.154Z,1039.48
2019-05-13T03:25:03.397Z,1039.53
2019-05-13T03:30:04.463Z,1039.55
2019-05-13T03:35:07.351Z,1039.71
2019-05-13T03:40:03.587Z,1039.71
2019-05-13T03:45:03.401Z,1039.68
2019-05-13T03:50:03.812Z,1039.68
2019-05-13T03:55:03.314Z,1039.68
2019-05-13T04:00:03.746Z,1039.68
2019-05-13T04:05:04.219Z,1039.82
2019-05-13T04:10:03.674Z,1039.78
2019-05-13T04:15:04.032Z,1039.81
2019-05-13T04:20:03.203Z,1039.85
2019-05-13T04:25:02.858Z,1039.89
2019-05-13T04:30:03.658Z,1039.84
2019-05-13T04:35:04.175Z,1039.91
2019-05-13T04:40:03.889Z,1039.91
2019-05-13T04:45:03.203Z,1039.99
2019-05-13T04:50:03.334Z,1039.94
2019-05-13T04:55:03.647Z,1039.94
2019-05-13T05:00:04.430Z,1039.95
2019-05-13T05:05:03.616Z,1040.02
2019-05-13T05:10:21.399Z,1039.97
2019-05-13T05:15:02.995Z,1039.94
2019-05-13T05:20:03.759Z,1039.94
2019-05-13T05:25:02.546Z,1039.99
2019-05-13T05:30:03.098Z,1039.99
2019-05-13T05:35:02.612Z,1040.14
2019-05-13T05:40:03.163Z,1040.16
2019-05-13T05:45:02.908Z,1040.21
2019-05-13T05:50:03.154Z,1040.19
2019-05-13T05:55:02.754Z,1040.33
2019-05-13T06:00:03.327Z,1040.28
2019-05-13T06:05:02.907Z,1040.31
2019-05-13T06:10:03.463Z,1040.28
2019-05-13T06:15:02.914Z,1040.33
2019-05-13T06:20:04.161Z,1040.22
2019-05-13T06:25:03.064Z,1040.2
2019-05-13T06:30:02.650Z,1040.16
2019-05-13T06:35:03.121Z,1040.24
2019-05-13T06:40:02.641Z,1040.18
2019-05-13T06:45:03.185Z,1040.14
2019-05-13T06:50:03.419Z,1040.13
2019-05-13T06:55:03.274Z,1040.13
2019-05-13T07:00:02.773Z,1040.09
2019-05-13T07:05:03.323Z,1040.19
2019-05-13T07:10:02.847Z,1040.16
2019-05-13T07:15:03.385Z,1040.14
2019-05-13T07:20:02.906Z,1040.13
2019-05-13T07:25:03.338Z,1040.1
2019-05-13T07:30:02.883Z,1040.08
2019-05-13T07:35:04.265Z,1040.16
2019-05-13T07:40:03.050Z,1040.11
2019-05-13T07:45:02.578Z,1040.21
2019-05-13T07:50:03.118Z,1040.2
2019-05-13T07:55:02.633Z,1040.18
2019-05-13T08:00:03.199Z,1040.13
2019-05-13T08:05:02.775Z,1040.16
2019-05-13T08:10:03.622Z,1040.11
2019-05-13T08:15:03.283Z,1040.09
2019-05-13T08:20:03.186Z,1040.14
2019-05-13T08:25:03.395Z,1040.16
2019-05-13T08:30:02.969Z,1040.14
2019-05-13T08:35:08.644Z,1040.11
2019-05-13T08:40:02.737Z,1040.15
2019-05-13T08:45:03.288Z,1040.17
2019-05-13T08:50:04.400Z,1040.09
2019-05-13T08:55:03.241Z,1040.06
2019-05-13T09:00:05.136Z,1040.05
2019-05-13T09:05:03.304Z,1040.02
2019-05-13T09:10:02.826Z,1040.12
2019-05-13T09:15:03.717Z,1040.07
2019-05-13T09:20:03.302Z,1040.03
2019-05-13T09:25:02.817Z,1040.08
2019-05-13T09:30:03.296Z,1040.05
2019-05-13T09:35:03.221Z,1040.09
2019-05-13T09:40:02.828Z,1040.02
2019-05-13T09:45:03.297Z,1039.91
2019-05-13T09:50:04.623Z,1039.93
2019-05-13T09:55:03.368Z,1039.96
2019-05-13T10:00:02.954Z,1039.94
2019-05-13T10:05:03.512Z,1039.87
2019-05-13T10:10:03.020Z,1039.81
2019-05-13T10:15:02.639Z,1039.83
2019-05-13T10:20:03.193Z,1039.83
2019-05-13T10:25:02.827Z,1039.82
2019-05-13T10:30:03.362Z,1039.73
2019-05-13T10:35:03.566Z,1039.69
2019-05-13T10:40:03.122Z,1039.75
2019-05-13T10:45:02.815Z,1039.68
2019-05-13T10:50:03.403Z,1039.61
2019-05-13T10:55:02.914Z,1039.54
2019-05-13T11:00:03.472Z,1039.55
2019-05-13T11:05:03.406Z,1039.46
2019-05-13T11:10:02.959Z,1039.32
2019-05-13T11:15:02.768Z,1039.36
2019-05-13T11:20:03.480Z,1039.36
2019-05-13T11:25:03.166Z,1039.34
2019-05-13T11:30:05.783Z,1039.38
2019-05-13T11:35:02.782Z,1039.2
2019-05-13T11:40:03.417Z,1039.2
2019-05-13T11:45:03.142Z,1039.07
2019-05-13T11:50:18.063Z,1039.03
2019-05-13T12:00:02.763Z,1038.88
2019-05-13T12:05:03.982Z,1038.79
2019-05-13T12:10:02.930Z,1038.86
2019-05-13T12:15:26.562Z,1038.71
2019-05-13T12:20:03.398Z,1038.67
2019-05-13T12:25:02.996Z,1038.58
2019-05-13T12:30:03.208Z,1038.49
2019-05-13T12:35:03.672Z,1038.51
2019-05-13T12:40:03.478Z,1038.47
2019-05-13T12:45:09.640Z,1038.4
2019-05-13T12:50:03.643Z,1038.34
2019-05-13T12:55:03.568Z,1038.31
2019-05-13T13:00:03.125Z,1038.24
2019-05-13T13:05:09.297Z,1038.28
2019-05-13T13:10:02.704Z,1038.21
2019-05-13T13:15:31.902Z,1038.03
2019-05-13T13:20:08.875Z,1038.15
2019-05-13T13:25:04.872Z,1038.09
2019-05-13T13:30:07.978Z,1038.08
2019-05-13T13:35:03.877Z,1038.02
2019-05-13T13:40:03.394Z,1037.94
2019-05-13T13:45:05.983Z,1037.88
2019-05-13T13:50:02.956Z,1037.88
2019-05-13T13:55:07.479Z,1037.69
2019-05-13T14:00:22.500Z,1037.78
2019-05-13T14:05:05.522Z,1037.75
2019-05-13T14:06:30.769Z,1038.99
2019-05-13T14:10:06.929Z,1037.75
2019-05-13T14:15:02.702Z,1037.61
2019-05-13T14:20:03.267Z,1037.52
2019-05-13T14:25:02.900Z,1037.61
2019-05-13T14:30:02.537Z,1037.52
2019-05-13T14:35:03.035Z,1037.44
2019-05-13T14:41:09.112Z,1037.38
2019-05-13T14:45:03.213Z,1037.35
2019-05-13T14:50:02.764Z,1037.32
2019-05-13T14:55:03.234Z,1037.54
2019-05-13T15:00:02.829Z,1037.39
2019-05-13T15:05:03.384Z,1037.36
2019-05-13T15:10:02.910Z,1037.26
2019-05-13T15:15:03.456Z,1037.29
2019-05-13T15:20:02.421Z,1037.12
2019-05-13T15:25:03.002Z,1037.28
2019-05-13T15:30:16.686Z,1037.15
2019-05-13T15:35:03.226Z,1037.12
2019-05-13T15:40:02.759Z,1037.12
2019-05-13T15:45:03.225Z,1037.07
2019-05-13T15:50:02.787Z,1037.08
2019-05-13T15:55:03.269Z,1036.99
2019-05-13T16:00:02.780Z,1037.02
2019-05-13T16:05:04.869Z,1036.99
2019-05-13T16:10:05.912Z,1036.83
2019-05-13T16:15:02.787Z,1036.83
2019-05-13T16:20:03.272Z,1036.91
2019-05-13T16:25:02.709Z,1036.88
2019-05-13T16:30:03.393Z,1036.8
2019-05-13T16:35:03.061Z,1036.81
2019-05-13T16:40:02.601Z,1036.73
2019-05-13T16:45:03.155Z,1036.73
2019-05-13T16:50:02.900Z,1036.68
2019-05-13T16:55:03.412Z,1036.65
2019-05-13T17:00:02.930Z,1036.62
2019-05-13T17:05:03.503Z,1036.67
2019-05-13T17:10:03.804Z,1036.62
2019-05-13T17:15:03.350Z,1036.57
2019-05-13T17:20:02.867Z,1036.56
2019-05-13T17:25:03.334Z,1036.55
2019-05-13T17:30:02.825Z,1036.6
2019-05-13T17:35:03.268Z,1036.59
2019-05-13T17:40:02.792Z,1036.63
2019-05-13T17:45:03.344Z,1036.56
2019-05-13T17:50:02.798Z,1036.52
2019-05-13T17:55:03.297Z,1036.5
2019-05-13T18:00:02.827Z,1036.54
2019-05-13T18:05:03.281Z,1036.57
2019-05-13T18:10:02.789Z,1036.56
2019-05-13T18:15:03.332Z,1036.5
2019-05-13T18:20:02.859Z,1036.42
2019-05-13T18:25:03.407Z,1036.47
2019-05-13T18:30:02.921Z,1036.47
2019-05-13T18:35:03.468Z,1036.49
2019-05-13T18:40:02.680Z,1036.58
2019-05-13T18:45:03.235Z,1036.52
2019-05-13T18:50:02.753Z,1036.54
2019-05-13T18:55:03.190Z,1036.53
2019-05-13T19:00:02.718Z,1036.58
2019-05-13T19:05:03.279Z,1036.57
2019-05-13T19:10:02.809Z,1036.67
2019-05-13T19:16:07.729Z,1036.77
2019-05-13T19:20:03.254Z,1036.81
2019-05-13T19:25:02.784Z,1036.8
2019-05-13T19:30:03.327Z,1036.77
2019-05-13T19:35:02.851Z,1036.9
2019-05-13T19:40:03.384Z,1036.86
2019-05-13T19:45:02.885Z,1036.95
2019-05-13T19:50:03.360Z,1036.94
2019-05-13T19:55:02.915Z,1036.99
2019-05-13T20:00:03.424Z,1037.05
2019-05-13T20:05:02.979Z,1037.1
2019-05-13T20:10:02.919Z,1037.07
2019-05-13T20:15:02.549Z,1037.09
2019-05-13T20:20:03.075Z,1037.16
2019-05-13T20:25:02.610Z,1037.15
2019-05-13T20:30:03.142Z,1037.12
2019-05-13T20:35:02.664Z,1037.23
2019-05-13T20:40:03.193Z,1037.23
2019-05-13T20:45:02.719Z,1037.28
2019-05-13T20:50:03.450Z,1037.23
2019-05-13T20:55:03.070Z,1037.31
2019-05-13T21:00:02.648Z,1037.34
2019-05-13T21:05:03.137Z,1037.32
2019-05-13T21:10:02.583Z,1037.38
2019-05-13T21:15:03.106Z,1037.32
2019-05-13T21:20:17.927Z,1037.34
2019-05-13T21:25:02.966Z,1037.26
2019-05-13T21:30:02.489Z,1037.25
2019-05-13T21:35:03.037Z,1037.22
2019-05-13T21:40:02.556Z,1037.25
2019-05-13T21:45:03.096Z,1037.3
2019-05-13T21:50:02.635Z,1037.3
2019-05-13T21:55:03.178Z,1037.33
2019-05-13T22:00:02.695Z,1037.34
2019-05-13T22:05:03.237Z,1037.27
2019-05-13T22:10:02.754Z,1037.29
2019-05-13T22:15:03.197Z,1037.22
2019-05-13T22:20:02.722Z,1037.3
2019-05-13T22:25:03.269Z,1037.28
2019-05-13T22:30:02.784Z,1037.27
2019-05-13T22:35:03.232Z,1037.18
2019-05-13T22:40:04.154Z,1037.22
2019-05-13T22:45:03.045Z,1037.16
2019-05-13T22:50:02.613Z,1037.08
2019-05-13T22:55:03.055Z,1037.1
2019-05-13T23:00:07.188Z,1037.03
2019-05-13T23:05:03.328Z,1037.08
2019-05-13T23:10:02.846Z,1037.07
2019-05-13T23:15:03.395Z,1037.08
2019-05-13T23:20:02.867Z,1037.06
2019-05-13T23:25:03.361Z,1037.15
2019-05-13T23:30:02.879Z,1037.17
2019-05-13T23:35:03.346Z,1037.15
2019-05-13T23:40:02.844Z,1037.21
2019-05-13T23:45:03.301Z,1037.17
2019-05-13T23:50:02.803Z,1037.12
2019-05-13T23:55:05.799Z,1037.19
